sensor_id;sensor_type;location;lat;lon;timestamp;temperature;humidity
1594;DHT22;790;47.000;16.084;2022-10-31T00:00:31;10.50;99.90
1594;DHT22;790;47.000;16.084;2022-10-31T00:02:58;10.50;99.90
1594;DHT22;790;47.000;16.084;2022-10-31T00:05:26;10.40;99.90
1594;DHT22;790;47.000;16.084;2022-10-31T00:07:53;10.50;99.90
1594;DHT22;790;47.000;16.084;2022-10-31T00:10:20;10.50;99.90
1594;DHT22;790;47.000;16.084;2022-10-31T00:12:47;10.40;99.90
1594;DHT22;790;47.000;16.084;2022-10-31T00:15:14;10.30;99.90
1594;DHT22;790;47.000;16.084;2022-10-31T00:17:42;10.30;99.90
1594;DHT22;790;47.000;16.084;2022-10-31T00:20:09;10.30;99.90
1594;DHT22;790;47.000;16.084;2022-10-31T00:22:38;10.40;99.90
1594;DHT22;790;47.000;16.084;2022-10-31T00:25:06;10.40;99.90
1594;DHT22;790;47.000;16.084;2022-10-31T00:27:33;10.40;99.90
1594;DHT22;790;47.000;16.084;2022-10-31T00:30:00;10.50;99.90
1594;DHT22;790;47.000;16.084;2022-10-31T00:32:28;10.50;99.90
1594;DHT22;790;47.000;16.084;2022-10-31T00:34:56;10.50;99.90
1594;DHT22;790;47.000;16.084;2022-10-31T00:37:23;10.40;99.90
1594;DHT22;790;47.000;16.084;2022-10-31T00:39:51;10.40;99.90
1594;DHT22;790;47.000;16.084;2022-10-31T00:42:18;10.40;99.90
1594;DHT22;790;47.000;16.084;2022-10-31T00:44:45;10.40;99.90
1594;DHT22;790;47.000;16.084;2022-10-31T00:47:13;10.40;99.90
1594;DHT22;790;47.000;16.084;2022-10-31T00:49:40;10.30;99.90
1594;DHT22;790;47.000;16.084;2022-10-31T00:52:07;10.40;99.90
1594;DHT22;790;47.000;16.084;2022-10-31T00:54:34;10.40;99.90
1594;DHT22;790;47.000;16.084;2022-10-31T00:57:02;10.40;99.90
1594;DHT22;790;47.000;16.084;2022-10-31T00:59:29;10.30;99.90
1594;DHT22;790;47.000;16.084;2022-10-31T01:01:56;10.40;99.90
1594;DHT22;790;47.000;16.084;2022-10-31T01:04:23;10.40;99.90
1594;DHT22;790;47.000;16.084;2022-10-31T01:06:50;10.40;99.90
1594;DHT22;790;47.000;16.084;2022-10-31T01:09:18;10.40;99.90
1594;DHT22;790;47.000;16.084;2022-10-31T01:11:45;10.30;99.90
1594;DHT22;790;47.000;16.084;2022-10-31T01:14:13;10.40;99.90
1594;DHT22;790;47.000;16.084;2022-10-31T01:16:40;10.40;99.90
1594;DHT22;790;47.000;16.084;2022-10-31T01:19:07;10.40;99.90
1594;DHT22;790;47.000;16.084;2022-10-31T01:21:34;10.40;99.90
1594;DHT22;790;47.000;16.084;2022-10-31T01:24:01;10.50;99.90
1594;DHT22;790;47.000;16.084;2022-10-31T01:26:30;10.50;99.90
1594;DHT22;790;47.000;16.084;2022-10-31T01:28:58;10.50;99.90
1594;DHT22;790;47.000;16.084;2022-10-31T01:31:30;10.60;99.90
1594;DHT22;790;47.000;16.084;2022-10-31T01:33:58;10.60;99.90
1594;DHT22;790;47.000;16.084;2022-10-31T01:36:27;10.50;99.90
1594;DHT22;790;47.000;16.084;2022-10-31T01:38:56;10.50;99.90
1594;DHT22;790;47.000;16.084;2022-10-31T01:41:26;10.50;99.90
1594;DHT22;790;47.000;16.084;2022-10-31T01:43:56;10.50;99.90
1594;DHT22;790;47.000;16.084;2022-10-31T01:46:27;10.50;99.90
1594;DHT22;790;47.000;16.084;2022-10-31T01:48:57;10.60;99.90
1594;DHT22;790;47.000;16.084;2022-10-31T01:51:29;10.50;99.90
1594;DHT22;790;47.000;16.084;2022-10-31T01:53:59;10.50;99.90
1594;DHT22;790;47.000;16.084;2022-10-31T01:56:27;10.50;99.90
1594;DHT22;790;47.000;16.084;2022-10-31T01:58:55;10.40;99.90
1594;DHT22;790;47.000;16.084;2022-10-31T02:01:23;10.40;99.90
1594;DHT22;790;47.000;16.084;2022-10-31T02:03:51;10.40;99.90
1594;DHT22;790;47.000;16.084;2022-10-31T02:06:26;10.40;99.90
1594;DHT22;790;47.000;16.084;2022-10-31T02:08:55;10.40;99.90
1594;DHT22;790;47.000;16.084;2022-10-31T02:11:24;10.40;99.90
1594;DHT22;790;47.000;16.084;2022-10-31T02:13:51;10.40;99.90
1594;DHT22;790;47.000;16.084;2022-10-31T02:16:18;10.40;99.90
1594;DHT22;790;47.000;16.084;2022-10-31T02:18:45;10.40;99.90
1594;DHT22;790;47.000;16.084;2022-10-31T02:21:18;10.40;99.90
1594;DHT22;790;47.000;16.084;2022-10-31T02:24:07;10.50;99.90
1594;DHT22;790;47.000;16.084;2022-10-31T02:26:49;10.50;99.90
1594;DHT22;790;47.000;16.084;2022-10-31T02:32:25;10.50;99.90
1594;DHT22;790;47.000;16.084;2022-10-31T02:34:58;10.30;99.90
1594;DHT22;790;47.000;16.084;2022-10-31T02:37:31;10.30;99.90
1594;DHT22;790;47.000;16.084;2022-10-31T02:40:05;10.20;99.90
1594;DHT22;790;47.000;16.084;2022-10-31T02:42:39;10.20;99.90
1594;DHT22;790;47.000;16.084;2022-10-31T02:45:13;10.20;99.90
1594;DHT22;790;47.000;16.084;2022-10-31T02:47:48;10.30;99.90
1594;DHT22;790;47.000;16.084;2022-10-31T02:50:21;10.30;99.90
1594;DHT22;790;47.000;16.084;2022-10-31T02:52:50;10.30;99.90
1594;DHT22;790;47.000;16.084;2022-10-31T02:55:44;10.30;99.90
1594;DHT22;790;47.000;16.084;2022-10-31T02:58:15;10.20;99.90
1594;DHT22;790;47.000;16.084;2022-10-31T03:00:52;10.30;99.90
1594;DHT22;790;47.000;16.084;2022-10-31T03:03:27;10.30;99.90
1594;DHT22;790;47.000;16.084;2022-10-31T03:06:02;10.30;99.90
1594;DHT22;790;47.000;16.084;2022-10-31T03:08:36;10.20;99.90
1594;DHT22;790;47.000;16.084;2022-10-31T03:11:08;10.20;99.90
1594;DHT22;790;47.000;16.084;2022-10-31T03:13:45;10.10;99.90
1594;DHT22;790;47.000;16.084;2022-10-31T03:16:15;10.10;99.90
1594;DHT22;790;47.000;16.084;2022-10-31T03:18:48;10.10;99.90
1594;DHT22;790;47.000;16.084;2022-10-31T03:21:20;10.10;99.90
1594;DHT22;790;47.000;16.084;2022-10-31T03:23:49;10.10;99.90
1594;DHT22;790;47.000;16.084;2022-10-31T03:26:18;10.10;99.90
1594;DHT22;790;47.000;16.084;2022-10-31T03:28:49;10.20;99.90
1594;DHT22;790;47.000;16.084;2022-10-31T03:31:19;10.20;99.90
1594;DHT22;790;47.000;16.084;2022-10-31T03:33:51;10.10;99.90
1594;DHT22;790;47.000;16.084;2022-10-31T03:36:19;10.00;99.90
1594;DHT22;790;47.000;16.084;2022-10-31T03:38:47;10.00;99.90
1594;DHT22;790;47.000;16.084;2022-10-31T03:41:20;10.10;99.90
1594;DHT22;790;47.000;16.084;2022-10-31T03:43:54;10.20;99.90
1594;DHT22;790;47.000;16.084;2022-10-31T03:46:22;10.20;99.90
1594;DHT22;790;47.000;16.084;2022-10-31T03:48:51;10.20;99.90
1594;DHT22;790;47.000;16.084;2022-10-31T03:51:22;10.00;99.90
1594;DHT22;790;47.000;16.084;2022-10-31T03:53:55;10.00;99.90
1594;DHT22;790;47.000;16.084;2022-10-31T03:56:29;10.00;99.90
1594;DHT22;790;47.000;16.084;2022-10-31T03:58:59;10.00;99.90
1594;DHT22;790;47.000;16.084;2022-10-31T04:01:30;9.90;99.90
1594;DHT22;790;47.000;16.084;2022-10-31T04:04:00;9.90;99.90
1594;DHT22;790;47.000;16.084;2022-10-31T04:06:28;9.90;99.90
1594;DHT22;790;47.000;16.084;2022-10-31T04:09:00;10.00;99.90
1594;DHT22;790;47.000;16.084;2022-10-31T04:11:31;10.00;99.90
1594;DHT22;790;47.000;16.084;2022-10-31T04:14:01;10.00;99.90
1594;DHT22;790;47.000;16.084;2022-10-31T04:16:28;10.00;99.90
1594;DHT22;790;47.000;16.084;2022-10-31T04:18:56;9.90;99.90
1594;DHT22;790;47.000;16.084;2022-10-31T04:21:28;9.90;99.90
1594;DHT22;790;47.000;16.084;2022-10-31T04:23:55;9.80;99.90
1594;DHT22;790;47.000;16.084;2022-10-31T04:26:23;9.80;99.90
1594;DHT22;790;47.000;16.084;2022-10-31T04:28:50;9.90;99.90
1594;DHT22;790;47.000;16.084;2022-10-31T04:31:17;9.80;99.90
1594;DHT22;790;47.000;16.084;2022-10-31T04:33:45;9.70;99.90
1594;DHT22;790;47.000;16.084;2022-10-31T04:36:12;9.80;99.90
1594;DHT22;790;47.000;16.084;2022-10-31T04:38:41;9.90;99.90
1594;DHT22;790;47.000;16.084;2022-10-31T04:41:08;10.00;99.90
1594;DHT22;790;47.000;16.084;2022-10-31T04:43:35;9.90;99.90
1594;DHT22;790;47.000;16.084;2022-10-31T04:46:03;9.90;99.90
1594;DHT22;790;47.000;16.084;2022-10-31T04:48:30;9.90;99.90
1594;DHT22;790;47.000;16.084;2022-10-31T04:51:01;9.90;99.90
1594;DHT22;790;47.000;16.084;2022-10-31T04:53:29;9.90;99.90
1594;DHT22;790;47.000;16.084;2022-10-31T04:55:59;9.90;99.90
1594;DHT22;790;47.000;16.084;2022-10-31T04:58:26;10.00;99.90
1594;DHT22;790;47.000;16.084;2022-10-31T05:00:54;10.00;99.90
1594;DHT22;790;47.000;16.084;2022-10-31T05:03:21;10.00;99.90
1594;DHT22;790;47.000;16.084;2022-10-31T05:05:48;10.00;99.90
1594;DHT22;790;47.000;16.084;2022-10-31T05:08:16;10.00;99.90
1594;DHT22;790;47.000;16.084;2022-10-31T05:10:43;10.10;99.90
1594;DHT22;790;47.000;16.084;2022-10-31T05:13:11;10.00;99.90
1594;DHT22;790;47.000;16.084;2022-10-31T05:15:40;10.00;99.90
1594;DHT22;790;47.000;16.084;2022-10-31T05:18:07;10.00;99.90
1594;DHT22;790;47.000;16.084;2022-10-31T05:20:34;10.00;99.90
1594;DHT22;790;47.000;16.084;2022-10-31T05:23:01;9.90;99.90
1594;DHT22;790;47.000;16.084;2022-10-31T05:25:28;9.90;99.90
1594;DHT22;790;47.000;16.084;2022-10-31T05:27:56;9.80;99.90
1594;DHT22;790;47.000;16.084;2022-10-31T05:30:27;9.90;99.90
1594;DHT22;790;47.000;16.084;2022-10-31T05:32:54;9.90;99.90
1594;DHT22;790;47.000;16.084;2022-10-31T05:35:24;9.80;99.90
1594;DHT22;790;47.000;16.084;2022-10-31T05:37:52;9.90;99.90
1594;DHT22;790;47.000;16.084;2022-10-31T05:40:20;10.00;99.90
1594;DHT22;790;47.000;16.084;2022-10-31T05:42:49;10.00;99.90
1594;DHT22;790;47.000;16.084;2022-10-31T05:45:18;10.10;99.90
1594;DHT22;790;47.000;16.084;2022-10-31T05:47:51;10.00;99.90
1594;DHT22;790;47.000;16.084;2022-10-31T05:50:19;10.00;99.90
1594;DHT22;790;47.000;16.084;2022-10-31T05:52:46;10.10;99.90
1594;DHT22;790;47.000;16.084;2022-10-31T05:55:14;10.10;99.90
1594;DHT22;790;47.000;16.084;2022-10-31T05:57:41;10.10;99.90
1594;DHT22;790;47.000;16.084;2022-10-31T06:00:09;10.10;99.90
1594;DHT22;790;47.000;16.084;2022-10-31T06:02:36;10.10;99.90
1594;DHT22;790;47.000;16.084;2022-10-31T06:05:06;10.10;99.90
1594;DHT22;790;47.000;16.084;2022-10-31T06:07:34;10.20;99.90
1594;DHT22;790;47.000;16.084;2022-10-31T06:10:04;10.20;99.90
1594;DHT22;790;47.000;16.084;2022-10-31T06:12:32;10.20;99.90
1594;DHT22;790;47.000;16.084;2022-10-31T06:15:04;10.20;99.90
1594;DHT22;790;47.000;16.084;2022-10-31T06:17:33;10.20;99.90
1594;DHT22;790;47.000;16.084;2022-10-31T06:20:00;10.20;99.90
1594;DHT22;790;47.000;16.084;2022-10-31T06:22:29;10.20;99.90
1594;DHT22;790;47.000;16.084;2022-10-31T06:24:56;10.20;99.90
1594;DHT22;790;47.000;16.084;2022-10-31T06:27:24;10.30;99.90
1594;DHT22;790;47.000;16.084;2022-10-31T06:29:51;10.30;99.90
1594;DHT22;790;47.000;16.084;2022-10-31T06:32:19;10.30;99.90
1594;DHT22;790;47.000;16.084;2022-10-31T06:34:46;10.30;99.90
1594;DHT22;790;47.000;16.084;2022-10-31T06:37:14;10.30;99.90
1594;DHT22;790;47.000;16.084;2022-10-31T06:39:43;10.30;99.90
1594;DHT22;790;47.000;16.084;2022-10-31T06:42:10;10.40;99.90
1594;DHT22;790;47.000;16.084;2022-10-31T06:44:37;10.40;99.90
1594;DHT22;790;47.000;16.084;2022-10-31T06:47:05;10.50;99.90
1594;DHT22;790;47.000;16.084;2022-10-31T06:49:32;10.50;99.90
1594;DHT22;790;47.000;16.084;2022-10-31T06:51:59;10.50;99.90
1594;DHT22;790;47.000;16.084;2022-10-31T06:54:26;10.50;99.90
1594;DHT22;790;47.000;16.084;2022-10-31T06:56:55;10.50;99.90
1594;DHT22;790;47.000;16.084;2022-10-31T06:59:22;10.50;99.90
1594;DHT22;790;47.000;16.084;2022-10-31T07:01:49;10.50;99.90
1594;DHT22;790;47.000;16.084;2022-10-31T07:04:17;10.50;99.90
1594;DHT22;790;47.000;16.084;2022-10-31T07:06:44;10.60;99.90
1594;DHT22;790;47.000;16.084;2022-10-31T07:09:12;10.60;99.90
1594;DHT22;790;47.000;16.084;2022-10-31T07:11:38;10.60;99.90
1594;DHT22;790;47.000;16.084;2022-10-31T07:14:07;10.60;99.90
1594;DHT22;790;47.000;16.084;2022-10-31T07:16:34;10.50;99.90
1594;DHT22;790;47.000;16.084;2022-10-31T07:19:01;10.60;99.90
1594;DHT22;790;47.000;16.084;2022-10-31T07:21:28;10.60;99.90
1594;DHT22;790;47.000;16.084;2022-10-31T07:23:55;10.60;99.90
1594;DHT22;790;47.000;16.084;2022-10-31T07:26:22;10.60;99.90
1594;DHT22;790;47.000;16.084;2022-10-31T07:28:49;10.60;99.90
1594;DHT22;790;47.000;16.084;2022-10-31T07:31:17;10.70;99.90
1594;DHT22;790;47.000;16.084;2022-10-31T07:33:44;10.70;99.90
1594;DHT22;790;47.000;16.084;2022-10-31T07:36:11;10.70;99.90
1594;DHT22;790;47.000;16.084;2022-10-31T07:38:39;10.70;99.90
1594;DHT22;790;47.000;16.084;2022-10-31T07:41:05;10.70;99.90
1594;DHT22;790;47.000;16.084;2022-10-31T07:43:32;10.70;99.90
1594;DHT22;790;47.000;16.084;2022-10-31T07:46:00;10.70;99.90
1594;DHT22;790;47.000;16.084;2022-10-31T07:48:28;10.80;99.90
1594;DHT22;790;47.000;16.084;2022-10-31T07:50:55;10.80;99.90
1594;DHT22;790;47.000;16.084;2022-10-31T07:53:22;10.90;99.90
1594;DHT22;790;47.000;16.084;2022-10-31T07:55:50;10.90;99.90
1594;DHT22;790;47.000;16.084;2022-10-31T07:58:17;10.80;99.90
1594;DHT22;790;47.000;16.084;2022-10-31T08:00:46;10.70;99.90
1594;DHT22;790;47.000;16.084;2022-10-31T08:03:14;10.70;99.90
1594;DHT22;790;47.000;16.084;2022-10-31T08:05:43;10.80;99.90
1594;DHT22;790;47.000;16.084;2022-10-31T08:08:12;10.70;99.90
1594;DHT22;790;47.000;16.084;2022-10-31T08:10:39;10.80;99.90
1594;DHT22;790;47.000;16.084;2022-10-31T08:13:09;10.90;99.90
1594;DHT22;790;47.000;16.084;2022-10-31T08:15:36;10.90;99.90
1594;DHT22;790;47.000;16.084;2022-10-31T08:18:06;11.00;99.90
1594;DHT22;790;47.000;16.084;2022-10-31T08:20:33;11.10;99.90
1594;DHT22;790;47.000;16.084;2022-10-31T08:23:03;11.10;99.90
1594;DHT22;790;47.000;16.084;2022-10-31T08:25:33;11.20;99.90
1594;DHT22;790;47.000;16.084;2022-10-31T08:28:00;11.20;99.90
1594;DHT22;790;47.000;16.084;2022-10-31T08:30:30;11.10;99.90
1594;DHT22;790;47.000;16.084;2022-10-31T08:32:59;11.10;99.90
1594;DHT22;790;47.000;16.084;2022-10-31T08:35:26;11.10;99.90
1594;DHT22;790;47.000;16.084;2022-10-31T08:37:54;11.20;99.90
1594;DHT22;790;47.000;16.084;2022-10-31T08:40:23;11.10;99.90
1594;DHT22;790;47.000;16.084;2022-10-31T08:42:56;11.10;99.90
1594;DHT22;790;47.000;16.084;2022-10-31T08:45:23;11.20;99.90
1594;DHT22;790;47.000;16.084;2022-10-31T08:47:50;11.20;99.90
1594;DHT22;790;47.000;16.084;2022-10-31T08:50:18;11.30;99.90
1594;DHT22;790;47.000;16.084;2022-10-31T08:52:45;11.40;99.90
1594;DHT22;790;47.000;16.084;2022-10-31T08:55:12;11.40;99.90
1594;DHT22;790;47.000;16.084;2022-10-31T08:57:41;11.50;99.90
1594;DHT22;790;47.000;16.084;2022-10-31T09:00:10;11.50;99.90
1594;DHT22;790;47.000;16.084;2022-10-31T09:02:37;11.50;99.90
1594;DHT22;790;47.000;16.084;2022-10-31T09:05:05;11.50;99.90
1594;DHT22;790;47.000;16.084;2022-10-31T09:07:32;11.40;99.90
1594;DHT22;790;47.000;16.084;2022-10-31T09:09:59;11.40;99.90
1594;DHT22;790;47.000;16.084;2022-10-31T09:12:26;11.50;99.90
1594;DHT22;790;47.000;16.084;2022-10-31T09:14:55;11.50;99.90
1594;DHT22;790;47.000;16.084;2022-10-31T09:17:22;11.50;99.90
1594;DHT22;790;47.000;16.084;2022-10-31T09:19:49;11.60;99.90
1594;DHT22;790;47.000;16.084;2022-10-31T09:22:16;11.70;99.90
1594;DHT22;790;47.000;16.084;2022-10-31T09:24:43;11.70;99.90
1594;DHT22;790;47.000;16.084;2022-10-31T09:27:10;11.70;99.90
1594;DHT22;790;47.000;16.084;2022-10-31T09:29:37;11.70;99.90
1594;DHT22;790;47.000;16.084;2022-10-31T09:32:05;11.80;99.90
1594;DHT22;790;47.000;16.084;2022-10-31T09:34:32;11.80;99.90
1594;DHT22;790;47.000;16.084;2022-10-31T09:36:59;11.90;99.90
1594;DHT22;790;47.000;16.084;2022-10-31T09:39:26;11.90;99.90
1594;DHT22;790;47.000;16.084;2022-10-31T09:42:10;11.80;99.90
1594;DHT22;790;47.000;16.084;2022-10-31T09:44:47;11.80;99.90
1594;DHT22;790;47.000;16.084;2022-10-31T09:47:23;11.90;99.90
1594;DHT22;790;47.000;16.084;2022-10-31T09:50:06;11.80;99.90
1594;DHT22;790;47.000;16.084;2022-10-31T09:52:36;11.90;99.90
1594;DHT22;790;47.000;16.084;2022-10-31T09:55:13;12.10;99.90
1594;DHT22;790;47.000;16.084;2022-10-31T09:57:42;12.10;99.90
1594;DHT22;790;47.000;16.084;2022-10-31T10:00:15;12.20;99.90
1594;DHT22;790;47.000;16.084;2022-10-31T10:02:47;12.30;99.90
1594;DHT22;790;47.000;16.084;2022-10-31T10:05:18;12.30;99.90
1594;DHT22;790;47.000;16.084;2022-10-31T10:07:53;12.40;99.90
1594;DHT22;790;47.000;16.084;2022-10-31T10:10:28;12.50;99.90
1594;DHT22;790;47.000;16.084;2022-10-31T10:13:14;12.50;99.90
1594;DHT22;790;47.000;16.084;2022-10-31T10:15:53;12.60;99.90
1594;DHT22;790;47.000;16.084;2022-10-31T10:18:32;12.60;99.90
1594;DHT22;790;47.000;16.084;2022-10-31T10:21:16;12.60;99.90
1594;DHT22;790;47.000;16.084;2022-10-31T10:23:55;12.60;99.90
1594;DHT22;790;47.000;16.084;2022-10-31T10:26:29;12.70;99.90
1594;DHT22;790;47.000;16.084;2022-10-31T10:29:02;12.70;99.90
1594;DHT22;790;47.000;16.084;2022-10-31T10:31:35;12.80;99.90
1594;DHT22;790;47.000;16.084;2022-10-31T10:34:13;12.80;99.90
1594;DHT22;790;47.000;16.084;2022-10-31T10:36:46;12.80;99.90
1594;DHT22;790;47.000;16.084;2022-10-31T10:39:18;12.90;99.90
1594;DHT22;790;47.000;16.084;2022-10-31T10:41:49;12.90;99.90
1594;DHT22;790;47.000;16.084;2022-10-31T10:44:30;12.90;99.90
1594;DHT22;790;47.000;16.084;2022-10-31T10:47:15;12.70;99.90
1594;DHT22;790;47.000;16.084;2022-10-31T10:50:04;12.50;99.90
1594;DHT22;790;47.000;16.084;2022-10-31T10:52:39;12.70;99.90
1594;DHT22;790;47.000;16.084;2022-10-31T10:55:14;12.60;99.90
1594;DHT22;790;47.000;16.084;2022-10-31T10:57:53;12.40;99.90
1594;DHT22;790;47.000;16.084;2022-10-31T11:00:23;12.40;99.90
1594;DHT22;790;47.000;16.084;2022-10-31T11:02:51;12.30;99.90
1594;DHT22;790;47.000;16.084;2022-10-31T11:05:24;12.30;99.90
1594;DHT22;790;47.000;16.084;2022-10-31T11:07:52;12.40;99.90
1594;DHT22;790;47.000;16.084;2022-10-31T11:10:19;12.40;99.90
1594;DHT22;790;47.000;16.084;2022-10-31T11:13:04;12.40;99.90
1594;DHT22;790;47.000;16.084;2022-10-31T11:15:36;12.50;99.90
1594;DHT22;790;47.000;16.084;2022-10-31T11:18:04;12.60;99.90
1594;DHT22;790;47.000;16.084;2022-10-31T11:20:35;12.60;99.90
1594;DHT22;790;47.000;16.084;2022-10-31T11:23:10;12.70;99.90
1594;DHT22;790;47.000;16.084;2022-10-31T11:25:48;12.80;99.90
1594;DHT22;790;47.000;16.084;2022-10-31T11:28:16;12.90;99.90
1594;DHT22;790;47.000;16.084;2022-10-31T11:30:45;13.00;99.90
1594;DHT22;790;47.000;16.084;2022-10-31T11:33:18;13.10;99.90
1594;DHT22;790;47.000;16.084;2022-10-31T11:35:48;13.10;99.90
1594;DHT22;790;47.000;16.084;2022-10-31T11:38:18;13.20;99.90
1594;DHT22;790;47.000;16.084;2022-10-31T11:40:54;13.20;99.90
1594;DHT22;790;47.000;16.084;2022-10-31T11:43:22;13.20;99.90
1594;DHT22;790;47.000;16.084;2022-10-31T11:45:50;13.30;99.90
1594;DHT22;790;47.000;16.084;2022-10-31T11:48:19;13.30;99.90
1594;DHT22;790;47.000;16.084;2022-10-31T11:50:52;13.30;99.90
1594;DHT22;790;47.000;16.084;2022-10-31T11:53:26;13.40;99.90
1594;DHT22;790;47.000;16.084;2022-10-31T11:56:03;13.40;99.90
1594;DHT22;790;47.000;16.084;2022-10-31T11:58:32;13.40;99.90
1594;DHT22;790;47.000;16.084;2022-10-31T12:00:59;13.40;99.90
1594;DHT22;790;47.000;16.084;2022-10-31T12:03:43;13.50;99.90
1594;DHT22;790;47.000;16.084;2022-10-31T12:06:20;13.50;99.90
1594;DHT22;790;47.000;16.084;2022-10-31T12:08:48;13.40;99.90
1594;DHT22;790;47.000;16.084;2022-10-31T12:11:28;13.40;99.90
1594;DHT22;790;47.000;16.084;2022-10-31T12:14:08;13.50;99.90
1594;DHT22;790;47.000;16.084;2022-10-31T12:16:42;13.60;99.90
1594;DHT22;790;47.000;16.084;2022-10-31T12:19:19;13.60;99.90
1594;DHT22;790;47.000;16.084;2022-10-31T12:22:13;13.60;99.90
1594;DHT22;790;47.000;16.084;2022-10-31T12:25:15;13.70;99.90
1594;DHT22;790;47.000;16.084;2022-10-31T12:30:55;13.60;99.90
1594;DHT22;790;47.000;16.084;2022-10-31T12:33:48;13.50;99.90
1594;DHT22;790;47.000;16.084;2022-10-31T12:36:39;13.40;99.90
1594;DHT22;790;47.000;16.084;2022-10-31T12:39:24;13.40;99.90
1594;DHT22;790;47.000;16.084;2022-10-31T12:41:53;13.30;99.90
1594;DHT22;790;47.000;16.084;2022-10-31T12:44:44;13.30;99.90
1594;DHT22;790;47.000;16.084;2022-10-31T12:47:31;13.30;99.90
1594;DHT22;790;47.000;16.084;2022-10-31T12:50:12;13.40;99.90
1594;DHT22;790;47.000;16.084;2022-10-31T12:52:50;13.50;99.90
1594;DHT22;790;47.000;16.084;2022-10-31T12:55:37;13.40;99.90
1594;DHT22;790;47.000;16.084;2022-10-31T12:58:10;13.30;99.90
1594;DHT22;790;47.000;16.084;2022-10-31T13:00:44;13.40;99.90
1594;DHT22;790;47.000;16.084;2022-10-31T13:03:24;13.50;99.90
1594;DHT22;790;47.000;16.084;2022-10-31T13:05:56;13.60;99.90
1594;DHT22;790;47.000;16.084;2022-10-31T13:08:30;13.60;99.90
1594;DHT22;790;47.000;16.084;2022-10-31T13:11:06;13.60;99.90
1594;DHT22;790;47.000;16.084;2022-10-31T13:13:39;13.60;99.90
1594;DHT22;790;47.000;16.084;2022-10-31T13:16:12;13.60;99.90
1594;DHT22;790;47.000;16.084;2022-10-31T13:18:44;13.60;99.90
1594;DHT22;790;47.000;16.084;2022-10-31T13:21:18;13.60;99.90
1594;DHT22;790;47.000;16.084;2022-10-31T13:23:49;13.60;99.90
1594;DHT22;790;47.000;16.084;2022-10-31T13:26:22;13.60;99.90
1594;DHT22;790;47.000;16.084;2022-10-31T13:28:54;13.70;99.90
1594;DHT22;790;47.000;16.084;2022-10-31T13:31:23;13.60;99.90
1594;DHT22;790;47.000;16.084;2022-10-31T13:33:53;13.60;99.90
1594;DHT22;790;47.000;16.084;2022-10-31T13:36:30;13.60;99.90
1594;DHT22;790;47.000;16.084;2022-10-31T13:39:04;13.60;99.90
1594;DHT22;790;47.000;16.084;2022-10-31T13:41:42;13.70;99.90
1594;DHT22;790;47.000;16.084;2022-10-31T13:44:13;13.70;99.90
1594;DHT22;790;47.000;16.084;2022-10-31T13:46:43;13.60;99.90
1594;DHT22;790;47.000;16.084;2022-10-31T13:49:38;13.50;99.90
1594;DHT22;790;47.000;16.084;2022-10-31T13:52:11;13.50;99.90
1594;DHT22;790;47.000;16.084;2022-10-31T13:54:41;13.50;99.90
1594;DHT22;790;47.000;16.084;2022-10-31T13:57:17;13.50;99.90
1594;DHT22;790;47.000;16.084;2022-10-31T13:59:50;13.50;99.90
1594;DHT22;790;47.000;16.084;2022-10-31T14:02:22;13.50;99.90
1594;DHT22;790;47.000;16.084;2022-10-31T14:04:55;13.40;99.90
1594;DHT22;790;47.000;16.084;2022-10-31T14:07:24;13.40;99.90
1594;DHT22;790;47.000;16.084;2022-10-31T14:09:57;13.50;99.90
1594;DHT22;790;47.000;16.084;2022-10-31T14:12:31;13.40;99.90
1594;DHT22;790;47.000;16.084;2022-10-31T14:15:02;13.40;99.90
1594;DHT22;790;47.000;16.084;2022-10-31T14:17:36;13.50;99.90
1594;DHT22;790;47.000;16.084;2022-10-31T14:20:36;13.60;99.90
1594;DHT22;790;47.000;16.084;2022-10-31T14:23:33;13.60;99.90
1594;DHT22;790;47.000;16.084;2022-10-31T14:26:35;13.60;99.90
1594;DHT22;790;47.000;16.084;2022-10-31T14:29:25;13.60;99.90
1594;DHT22;790;47.000;16.084;2022-10-31T14:31:58;13.60;99.90
1594;DHT22;790;47.000;16.084;2022-10-31T14:34:28;13.50;99.90
1594;DHT22;790;47.000;16.084;2022-10-31T14:37:25;13.40;99.90
1594;DHT22;790;47.000;16.084;2022-10-31T14:40:07;13.40;99.90
1594;DHT22;790;47.000;16.084;2022-10-31T14:42:53;13.40;99.90
1594;DHT22;790;47.000;16.084;2022-10-31T14:45:31;13.40;99.90
1594;DHT22;790;47.000;16.084;2022-10-31T14:48:26;13.30;99.90
1594;DHT22;790;47.000;16.084;2022-10-31T14:50:57;13.30;99.90
1594;DHT22;790;47.000;16.084;2022-10-31T14:53:26;13.20;99.90
1594;DHT22;790;47.000;16.084;2022-10-31T14:55:56;13.20;99.90
1594;DHT22;790;47.000;16.084;2022-10-31T14:58:25;13.20;99.90
1594;DHT22;790;47.000;16.084;2022-10-31T15:00:59;13.20;99.90
1594;DHT22;790;47.000;16.084;2022-10-31T15:03:31;13.20;99.90
1594;DHT22;790;47.000;16.084;2022-10-31T15:06:02;13.20;99.90
1594;DHT22;790;47.000;16.084;2022-10-31T15:08:33;13.20;99.90
1594;DHT22;790;47.000;16.084;2022-10-31T15:11:10;13.10;99.90
1594;DHT22;790;47.000;16.084;2022-10-31T15:13:42;13.00;99.90
1594;DHT22;790;47.000;16.084;2022-10-31T15:16:13;13.00;99.90
1594;DHT22;790;47.000;16.084;2022-10-31T15:18:47;13.00;99.90
1594;DHT22;790;47.000;16.084;2022-10-31T15:21:16;13.10;99.90
1594;DHT22;790;47.000;16.084;2022-10-31T15:23:44;13.00;99.90
1594;DHT22;790;47.000;16.084;2022-10-31T15:26:16;13.00;99.90
1594;DHT22;790;47.000;16.084;2022-10-31T15:28:44;13.00;99.90
1594;DHT22;790;47.000;16.084;2022-10-31T15:31:17;13.00;99.90
1594;DHT22;790;47.000;16.084;2022-10-31T15:33:47;13.00;99.90
1594;DHT22;790;47.000;16.084;2022-10-31T15:36:20;13.00;99.90
1594;DHT22;790;47.000;16.084;2022-10-31T15:38:48;13.00;99.90
1594;DHT22;790;47.000;16.084;2022-10-31T15:41:29;13.00;99.90
1594;DHT22;790;47.000;16.084;2022-10-31T15:44:01;13.00;99.90
1594;DHT22;790;47.000;16.084;2022-10-31T15:46:31;13.00;99.90
1594;DHT22;790;47.000;16.084;2022-10-31T15:49:00;13.00;99.90
1594;DHT22;790;47.000;16.084;2022-10-31T15:51:28;12.90;99.90
1594;DHT22;790;47.000;16.084;2022-10-31T15:53:57;12.90;99.90
1594;DHT22;790;47.000;16.084;2022-10-31T15:56:28;12.90;99.90
1594;DHT22;790;47.000;16.084;2022-10-31T15:58:58;12.80;99.90
1594;DHT22;790;47.000;16.084;2022-10-31T16:01:29;12.80;99.90
1594;DHT22;790;47.000;16.084;2022-10-31T16:04:04;12.80;99.90
1594;DHT22;790;47.000;16.084;2022-10-31T16:06:33;12.90;99.90
1594;DHT22;790;47.000;16.084;2022-10-31T16:09:01;12.90;99.90
1594;DHT22;790;47.000;16.084;2022-10-31T16:11:34;12.90;99.90
1594;DHT22;790;47.000;16.084;2022-10-31T16:14:05;12.90;99.90
1594;DHT22;790;47.000;16.084;2022-10-31T16:16:40;13.00;99.90
1594;DHT22;790;47.000;16.084;2022-10-31T16:19:16;13.00;99.90
1594;DHT22;790;47.000;16.084;2022-10-31T16:21:44;13.00;99.90
1594;DHT22;790;47.000;16.084;2022-10-31T16:24:17;13.00;99.90
1594;DHT22;790;47.000;16.084;2022-10-31T16:26:50;13.00;99.90
1594;DHT22;790;47.000;16.084;2022-10-31T16:29:32;13.00;99.90
1594;DHT22;790;47.000;16.084;2022-10-31T16:32:00;13.10;99.90
1594;DHT22;790;47.000;16.084;2022-10-31T16:34:29;13.10;99.90